sensor_id;sensor_type;location;lat;lon;timestamp;P1;durP1;ratioP1;P2;durP2;ratioP2
44068;SDS011;29738;51.234;5.484;2022-12-24T00:00:19;17.10;;;3.03;;
44068;SDS011;29738;51.234;5.484;2022-12-24T00:02:45;13.40;;;2.63;;
44068;SDS011;29738;51.234;5.484;2022-12-24T00:05:10;14.60;;;3.17;;
44068;SDS011;29738;51.234;5.484;2022-12-24T00:07:36;15.57;;;2.72;;
44068;SDS011;29738;51.234;5.484;2022-12-24T00:10:03;17.77;;;2.75;;
44068;SDS011;29738;51.234;5.484;2022-12-24T00:12:29;12.52;;;3.10;;
44068;SDS011;29738;51.234;5.484;2022-12-24T00:14:55;17.02;;;2.65;;
44068;SDS011;29738;51.234;5.484;2022-12-24T00:17:21;19.17;;;3.65;;
44068;SDS011;29738;51.234;5.484;2022-12-24T00:19:47;18.88;;;3.35;;
44068;SDS011;29738;51.234;5.484;2022-12-24T00:22:13;16.70;;;3.05;;
44068;SDS011;29738;51.234;5.484;2022-12-24T00:24:39;10.45;;;3.75;;
44068;SDS011;29738;51.234;5.484;2022-12-24T00:27:04;13.68;;;3.05;;
44068;SDS011;29738;51.234;5.484;2022-12-24T00:29:30;26.33;;;5.72;;
44068;SDS011;29738;51.234;5.484;2022-12-24T00:31:57;15.23;;;3.17;;
44068;SDS011;29738;51.234;5.484;2022-12-24T00:34:23;19.27;;;3.03;;
44068;SDS011;29738;51.234;5.484;2022-12-24T00:36:49;13.57;;;3.15;;
44068;SDS011;29738;51.234;5.484;2022-12-24T00:39:15;19.70;;;3.22;;
44068;SDS011;29738;51.234;5.484;2022-12-24T00:41:41;18.25;;;3.10;;
44068;SDS011;29738;51.234;5.484;2022-12-24T00:44:06;12.02;;;2.78;;
44068;SDS011;29738;51.234;5.484;2022-12-24T00:46:37;12.77;;;2.90;;
44068;SDS011;29738;51.234;5.484;2022-12-24T00:49:04;17.50;;;3.63;;
44068;SDS011;29738;51.234;5.484;2022-12-24T00:51:31;13.05;;;2.92;;
44068;SDS011;29738;51.234;5.484;2022-12-24T00:53:57;13.32;;;2.90;;
44068;SDS011;29738;51.234;5.484;2022-12-24T00:56:23;12.63;;;3.58;;
44068;SDS011;29738;51.234;5.484;2022-12-24T00:58:49;15.00;;;2.45;;
44068;SDS011;29738;51.234;5.484;2022-12-24T01:01:16;10.77;;;2.60;;
44068;SDS011;29738;51.234;5.484;2022-12-24T01:03:42;16.90;;;3.50;;
44068;SDS011;29738;51.234;5.484;2022-12-24T01:06:10;20.23;;;3.05;;
44068;SDS011;29738;51.234;5.484;2022-12-24T01:08:38;16.30;;;3.10;;
44068;SDS011;29738;51.234;5.484;2022-12-24T01:11:04;14.90;;;2.30;;
44068;SDS011;29738;51.234;5.484;2022-12-24T01:13:32;14.82;;;2.53;;
44068;SDS011;29738;51.234;5.484;2022-12-24T01:15:58;16.33;;;3.05;;
44068;SDS011;29738;51.234;5.484;2022-12-24T01:18:24;16.30;;;3.90;;
44068;SDS011;29738;51.234;5.484;2022-12-24T01:21:01;11.52;;;3.00;;
44068;SDS011;29738;51.234;5.484;2022-12-24T01:23:27;13.13;;;2.45;;
44068;SDS011;29738;51.234;5.484;2022-12-24T01:25:58;12.13;;;2.83;;
44068;SDS011;29738;51.234;5.484;2022-12-24T01:28:27;21.65;;;3.90;;
44068;SDS011;29738;51.234;5.484;2022-12-24T01:30:54;17.48;;;2.72;;
44068;SDS011;29738;51.234;5.484;2022-12-24T01:33:19;9.60;;;2.47;;
44068;SDS011;29738;51.234;5.484;2022-12-24T01:35:45;11.73;;;2.00;;
44068;SDS011;29738;51.234;5.484;2022-12-24T01:38:11;14.43;;;4.38;;
44068;SDS011;29738;51.234;5.484;2022-12-24T01:40:38;13.68;;;1.77;;
44068;SDS011;29738;51.234;5.484;2022-12-24T01:43:40;9.73;;;2.05;;
44068;SDS011;29738;51.234;5.484;2022-12-24T01:46:08;25.25;;;3.70;;
44068;SDS011;29738;51.234;5.484;2022-12-24T01:49:07;17.38;;;3.50;;
44068;SDS011;29738;51.234;5.484;2022-12-24T01:51:36;22.25;;;4.45;;
44068;SDS011;29738;51.234;5.484;2022-12-24T01:54:30;16.70;;;2.58;;
44068;SDS011;29738;51.234;5.484;2022-12-24T01:57:04;13.68;;;2.40;;
44068;SDS011;29738;51.234;5.484;2022-12-24T01:59:35;13.75;;;3.50;;
44068;SDS011;29738;51.234;5.484;2022-12-24T02:02:02;13.30;;;3.10;;
44068;SDS011;29738;51.234;5.484;2022-12-24T02:07:03;9.93;;;1.98;;
44068;SDS011;29738;51.234;5.484;2022-12-24T02:09:29;14.48;;;3.78;;
44068;SDS011;29738;51.234;5.484;2022-12-24T02:11:57;20.92;;;3.47;;
44068;SDS011;29738;51.234;5.484;2022-12-24T02:14:23;15.45;;;2.83;;
44068;SDS011;29738;51.234;5.484;2022-12-24T02:16:59;15.00;;;3.17;;
44068;SDS011;29738;51.234;5.484;2022-12-24T02:22:14;12.55;;;2.03;;
44068;SDS011;29738;51.234;5.484;2022-12-24T02:24:56;8.52;;;3.03;;
44068;SDS011;29738;51.234;5.484;2022-12-24T02:27:56;15.23;;;2.63;;
44068;SDS011;29738;51.234;5.484;2022-12-24T02:30:29;12.93;;;2.55;;
44068;SDS011;29738;51.234;5.484;2022-12-24T02:33:03;12.93;;;2.63;;
44068;SDS011;29738;51.234;5.484;2022-12-24T02:35:39;12.68;;;2.00;;
44068;SDS011;29738;51.234;5.484;2022-12-24T02:38:43;7.65;;;2.33;;
44068;SDS011;29738;51.234;5.484;2022-12-24T02:41:30;7.38;;;1.80;;
44068;SDS011;29738;51.234;5.484;2022-12-24T02:44:20;9.90;;;1.90;;
44068;SDS011;29738;51.234;5.484;2022-12-24T02:46:48;9.75;;;1.65;;
44068;SDS011;29738;51.234;5.484;2022-12-24T02:49:15;11.65;;;2.95;;
44068;SDS011;29738;51.234;5.484;2022-12-24T02:51:41;9.05;;;1.83;;
44068;SDS011;29738;51.234;5.484;2022-12-24T02:54:07;5.88;;;2.08;;
44068;SDS011;29738;51.234;5.484;2022-12-24T03:07:37;8.18;;;1.77;;
44068;SDS011;29738;51.234;5.484;2022-12-24T03:10:30;11.82;;;2.63;;
44068;SDS011;29738;51.234;5.484;2022-12-24T03:13:14;6.60;;;1.75;;
44068;SDS011;29738;51.234;5.484;2022-12-24T03:15:41;9.68;;;2.03;;
44068;SDS011;29738;51.234;5.484;2022-12-24T03:18:09;10.30;;;2.30;;
44068;SDS011;29738;51.234;5.484;2022-12-24T03:20:38;8.63;;;1.85;;
44068;SDS011;29738;51.234;5.484;2022-12-24T03:23:06;9.63;;;1.98;;
44068;SDS011;29738;51.234;5.484;2022-12-24T03:25:32;15.38;;;3.10;;
44068;SDS011;29738;51.234;5.484;2022-12-24T03:27:58;16.85;;;2.58;;
44068;SDS011;29738;51.234;5.484;2022-12-24T03:30:27;6.28;;;1.77;;
44068;SDS011;29738;51.234;5.484;2022-12-24T03:32:53;13.35;;;2.22;;
44068;SDS011;29738;51.234;5.484;2022-12-24T03:35:19;11.02;;;1.98;;
44068;SDS011;29738;51.234;5.484;2022-12-24T03:37:44;6.18;;;1.80;;
44068;SDS011;29738;51.234;5.484;2022-12-24T03:40:10;9.43;;;3.03;;
44068;SDS011;29738;51.234;5.484;2022-12-24T03:42:36;13.02;;;2.72;;
44068;SDS011;29738;51.234;5.484;2022-12-24T03:45:02;6.95;;;2.03;;
44068;SDS011;29738;51.234;5.484;2022-12-24T03:47:29;10.48;;;2.47;;
44068;SDS011;29738;51.234;5.484;2022-12-24T03:49:55;10.23;;;2.33;;
44068;SDS011;29738;51.234;5.484;2022-12-24T03:52:21;10.70;;;2.65;;
44068;SDS011;29738;51.234;5.484;2022-12-24T03:54:47;9.85;;;2.13;;
44068;SDS011;29738;51.234;5.484;2022-12-24T03:57:13;17.42;;;2.85;;
44068;SDS011;29738;51.234;5.484;2022-12-24T03:59:38;12.18;;;2.78;;
44068;SDS011;29738;51.234;5.484;2022-12-24T04:02:04;11.25;;;3.00;;
44068;SDS011;29738;51.234;5.484;2022-12-24T04:04:30;20.00;;;3.92;;
44068;SDS011;29738;51.234;5.484;2022-12-24T04:06:57;22.20;;;3.17;;
44068;SDS011;29738;51.234;5.484;2022-12-24T04:09:23;12.05;;;2.45;;
44068;SDS011;29738;51.234;5.484;2022-12-24T04:11:49;9.32;;;2.90;;
44068;SDS011;29738;51.234;5.484;2022-12-24T04:14:15;10.52;;;2.55;;
44068;SDS011;29738;51.234;5.484;2022-12-24T04:16:41;13.55;;;2.20;;
44068;SDS011;29738;51.234;5.484;2022-12-24T04:19:06;14.07;;;3.10;;
44068;SDS011;29738;51.234;5.484;2022-12-24T04:21:32;11.10;;;2.75;;
44068;SDS011;29738;51.234;5.484;2022-12-24T04:23:58;6.53;;;1.88;;
44068;SDS011;29738;51.234;5.484;2022-12-24T04:26:24;10.88;;;2.67;;
44068;SDS011;29738;51.234;5.484;2022-12-24T04:28:50;9.35;;;2.88;;
44068;SDS011;29738;51.234;5.484;2022-12-24T04:31:16;12.88;;;2.70;;
44068;SDS011;29738;51.234;5.484;2022-12-24T04:33:42;7.55;;;2.70;;
44068;SDS011;29738;51.234;5.484;2022-12-24T04:36:09;13.35;;;3.03;;
44068;SDS011;29738;51.234;5.484;2022-12-24T04:38:39;16.85;;;3.60;;
44068;SDS011;29738;51.234;5.484;2022-12-24T04:41:06;13.85;;;2.90;;
44068;SDS011;29738;51.234;5.484;2022-12-24T04:43:34;6.10;;;2.28;;
44068;SDS011;29738;51.234;5.484;2022-12-24T04:46:07;8.32;;;3.20;;
44068;SDS011;29738;51.234;5.484;2022-12-24T04:48:35;8.57;;;2.47;;
44068;SDS011;29738;51.234;5.484;2022-12-24T04:51:01;7.65;;;2.40;;
44068;SDS011;29738;51.234;5.484;2022-12-24T04:53:29;13.68;;;3.70;;
44068;SDS011;29738;51.234;5.484;2022-12-24T04:55:55;8.60;;;2.13;;
44068;SDS011;29738;51.234;5.484;2022-12-24T04:58:21;8.07;;;1.90;;
44068;SDS011;29738;51.234;5.484;2022-12-24T05:00:46;15.02;;;3.65;;
44068;SDS011;29738;51.234;5.484;2022-12-24T05:03:12;9.13;;;2.45;;
44068;SDS011;29738;51.234;5.484;2022-12-24T05:05:38;12.05;;;2.63;;
44068;SDS011;29738;51.234;5.484;2022-12-24T05:08:04;9.75;;;2.90;;
44068;SDS011;29738;51.234;5.484;2022-12-24T05:10:30;13.77;;;3.83;;
44068;SDS011;29738;51.234;5.484;2022-12-24T05:12:56;11.00;;;2.70;;
44068;SDS011;29738;51.234;5.484;2022-12-24T05:15:22;8.68;;;3.10;;
44068;SDS011;29738;51.234;5.484;2022-12-24T05:17:49;10.07;;;2.50;;
44068;SDS011;29738;51.234;5.484;2022-12-24T05:20:15;15.18;;;3.30;;
44068;SDS011;29738;51.234;5.484;2022-12-24T05:22:41;12.20;;;3.17;;
44068;SDS011;29738;51.234;5.484;2022-12-24T05:25:26;10.98;;;2.78;;
44068;SDS011;29738;51.234;5.484;2022-12-24T05:28:16;12.50;;;2.92;;
44068;SDS011;29738;51.234;5.484;2022-12-24T05:30:42;11.32;;;3.10;;
44068;SDS011;29738;51.234;5.484;2022-12-24T05:33:08;12.18;;;2.40;;
44068;SDS011;29738;51.234;5.484;2022-12-24T05:35:33;12.77;;;3.63;;
44068;SDS011;29738;51.234;5.484;2022-12-24T05:37:59;8.63;;;2.50;;
44068;SDS011;29738;51.234;5.484;2022-12-24T05:40:25;10.07;;;3.05;;
44068;SDS011;29738;51.234;5.484;2022-12-24T05:42:51;13.25;;;3.33;;
44068;SDS011;29738;51.234;5.484;2022-12-24T05:45:16;14.45;;;2.90;;
44068;SDS011;29738;51.234;5.484;2022-12-24T05:47:42;18.48;;;3.83;;
44068;SDS011;29738;51.234;5.484;2022-12-24T05:50:08;12.57;;;3.33;;
44068;SDS011;29738;51.234;5.484;2022-12-24T05:52:34;16.75;;;4.00;;
44068;SDS011;29738;51.234;5.484;2022-12-24T05:55:00;11.93;;;3.08;;
44068;SDS011;29738;51.234;5.484;2022-12-24T05:57:26;10.65;;;3.42;;
44068;SDS011;29738;51.234;5.484;2022-12-24T05:59:51;7.32;;;2.67;;
44068;SDS011;29738;51.234;5.484;2022-12-24T06:02:17;11.93;;;4.25;;
44068;SDS011;29738;51.234;5.484;2022-12-24T06:04:43;10.23;;;2.95;;
44068;SDS011;29738;51.234;5.484;2022-12-24T06:07:09;8.55;;;3.08;;
44068;SDS011;29738;51.234;5.484;2022-12-24T06:09:34;11.60;;;2.42;;
44068;SDS011;29738;51.234;5.484;2022-12-24T06:12:00;14.18;;;3.20;;
44068;SDS011;29738;51.234;5.484;2022-12-24T06:14:26;10.00;;;1.88;;
44068;SDS011;29738;51.234;5.484;2022-12-24T06:16:52;10.63;;;3.00;;
44068;SDS011;29738;51.234;5.484;2022-12-24T06:19:17;15.55;;;2.67;;
44068;SDS011;29738;51.234;5.484;2022-12-24T06:21:43;15.18;;;2.65;;
44068;SDS011;29738;51.234;5.484;2022-12-24T06:24:09;7.78;;;2.97;;
44068;SDS011;29738;51.234;5.484;2022-12-24T06:26:35;12.75;;;2.53;;
44068;SDS011;29738;51.234;5.484;2022-12-24T06:29:00;11.43;;;2.60;;
44068;SDS011;29738;51.234;5.484;2022-12-24T06:31:26;12.55;;;2.28;;
44068;SDS011;29738;51.234;5.484;2022-12-24T06:33:52;15.65;;;3.13;;
44068;SDS011;29738;51.234;5.484;2022-12-24T06:36:19;19.30;;;3.67;;
44068;SDS011;29738;51.234;5.484;2022-12-24T06:38:47;13.90;;;3.17;;
44068;SDS011;29738;51.234;5.484;2022-12-24T06:41:13;12.98;;;3.58;;
44068;SDS011;29738;51.234;5.484;2022-12-24T06:43:42;13.73;;;2.92;;
44068;SDS011;29738;51.234;5.484;2022-12-24T06:46:09;17.20;;;3.33;;
44068;SDS011;29738;51.234;5.484;2022-12-24T06:48:35;20.10;;;2.88;;
44068;SDS011;29738;51.234;5.484;2022-12-24T06:51:02;22.15;;;9.77;;
44068;SDS011;29738;51.234;5.484;2022-12-24T06:53:28;32.72;;;14.65;;
44068;SDS011;29738;51.234;5.484;2022-12-24T06:56:07;23.05;;;9.00;;
44068;SDS011;29738;51.234;5.484;2022-12-24T06:58:35;46.92;;;29.70;;
44068;SDS011;29738;51.234;5.484;2022-12-24T07:01:02;20.48;;;3.28;;
44068;SDS011;29738;51.234;5.484;2022-12-24T07:03:30;20.13;;;6.20;;
44068;SDS011;29738;51.234;5.484;2022-12-24T07:05:56;16.98;;;9.90;;
44068;SDS011;29738;51.234;5.484;2022-12-24T07:08:22;37.10;;;22.35;;
44068;SDS011;29738;51.234;5.484;2022-12-24T07:10:48;19.65;;;5.93;;
44068;SDS011;29738;51.234;5.484;2022-12-24T07:13:15;25.55;;;12.68;;
44068;SDS011;29738;51.234;5.484;2022-12-24T07:15:41;20.65;;;6.20;;
44068;SDS011;29738;51.234;5.484;2022-12-24T07:18:07;16.60;;;5.40;;
44068;SDS011;29738;51.234;5.484;2022-12-24T07:20:33;9.98;;;2.97;;
44068;SDS011;29738;51.234;5.484;2022-12-24T07:22:58;36.85;;;19.27;;
44068;SDS011;29738;51.234;5.484;2022-12-24T07:25:24;42.25;;;17.33;;
44068;SDS011;29738;51.234;5.484;2022-12-24T07:27:50;18.63;;;8.65;;
44068;SDS011;29738;51.234;5.484;2022-12-24T07:30:16;13.07;;;4.80;;
44068;SDS011;29738;51.234;5.484;2022-12-24T07:32:42;14.10;;;3.70;;
44068;SDS011;29738;51.234;5.484;2022-12-24T07:35:08;13.77;;;4.70;;
44068;SDS011;29738;51.234;5.484;2022-12-24T07:37:34;17.17;;;4.35;;
44068;SDS011;29738;51.234;5.484;2022-12-24T07:40:00;30.85;;;12.35;;
44068;SDS011;29738;51.234;5.484;2022-12-24T07:42:25;36.95;;;18.42;;
44068;SDS011;29738;51.234;5.484;2022-12-24T07:44:51;21.73;;;10.73;;
44068;SDS011;29738;51.234;5.484;2022-12-24T07:47:17;31.67;;;20.13;;
44068;SDS011;29738;51.234;5.484;2022-12-24T07:49:43;23.17;;;10.80;;
44068;SDS011;29738;51.234;5.484;2022-12-24T07:52:09;20.08;;;10.30;;
44068;SDS011;29738;51.234;5.484;2022-12-24T07:54:35;18.83;;;5.72;;
44068;SDS011;29738;51.234;5.484;2022-12-24T07:57:01;21.60;;;7.53;;
44068;SDS011;29738;51.234;5.484;2022-12-24T07:59:27;28.05;;;14.93;;
44068;SDS011;29738;51.234;5.484;2022-12-24T08:01:52;12.50;;;7.38;;
44068;SDS011;29738;51.234;5.484;2022-12-24T08:04:18;15.82;;;5.10;;
44068;SDS011;29738;51.234;5.484;2022-12-24T08:06:44;18.08;;;3.78;;
44068;SDS011;29738;51.234;5.484;2022-12-24T08:09:10;17.42;;;4.88;;
44068;SDS011;29738;51.234;5.484;2022-12-24T08:11:35;15.95;;;3.33;;
44068;SDS011;29738;51.234;5.484;2022-12-24T08:14:01;12.35;;;3.28;;
44068;SDS011;29738;51.234;5.484;2022-12-24T08:16:27;18.83;;;3.45;;
44068;SDS011;29738;51.234;5.484;2022-12-24T08:18:53;15.48;;;3.00;;
44068;SDS011;29738;51.234;5.484;2022-12-24T08:21:18;10.70;;;3.03;;
44068;SDS011;29738;51.234;5.484;2022-12-24T08:23:45;10.10;;;2.78;;
44068;SDS011;29738;51.234;5.484;2022-12-24T08:26:11;14.73;;;2.72;;
44068;SDS011;29738;51.234;5.484;2022-12-24T08:28:37;18.73;;;3.28;;
44068;SDS011;29738;51.234;5.484;2022-12-24T08:31:03;13.27;;;3.35;;
44068;SDS011;29738;51.234;5.484;2022-12-24T08:33:29;14.20;;;3.47;;
44068;SDS011;29738;51.234;5.484;2022-12-24T08:35:56;14.88;;;3.22;;
44068;SDS011;29738;51.234;5.484;2022-12-24T08:38:22;18.02;;;3.58;;
44068;SDS011;29738;51.234;5.484;2022-12-24T08:40:48;11.45;;;3.65;;
44068;SDS011;29738;51.234;5.484;2022-12-24T08:43:14;13.85;;;2.97;;
44068;SDS011;29738;51.234;5.484;2022-12-24T08:45:41;9.60;;;3.25;;
44068;SDS011;29738;51.234;5.484;2022-12-24T08:48:07;16.55;;;3.42;;
44068;SDS011;29738;51.234;5.484;2022-12-24T08:50:34;13.45;;;2.40;;
44068;SDS011;29738;51.234;5.484;2022-12-24T08:53:02;11.35;;;3.08;;
44068;SDS011;29738;51.234;5.484;2022-12-24T08:55:28;14.55;;;3.67;;
44068;SDS011;29738;51.234;5.484;2022-12-24T08:57:54;12.23;;;2.78;;
44068;SDS011;29738;51.234;5.484;2022-12-24T09:00:20;21.80;;;3.28;;
44068;SDS011;29738;51.234;5.484;2022-12-24T09:02:45;18.15;;;4.93;;
44068;SDS011;29738;51.234;5.484;2022-12-24T09:05:11;10.63;;;2.80;;
44068;SDS011;29738;51.234;5.484;2022-12-24T09:07:37;21.08;;;3.72;;
44068;SDS011;29738;51.234;5.484;2022-12-24T09:10:03;15.93;;;3.30;;
44068;SDS011;29738;51.234;5.484;2022-12-24T09:12:29;12.23;;;2.80;;
44068;SDS011;29738;51.234;5.484;2022-12-24T09:14:55;18.70;;;4.38;;
44068;SDS011;29738;51.234;5.484;2022-12-24T09:17:21;15.93;;;4.65;;
44068;SDS011;29738;51.234;5.484;2022-12-24T09:19:46;15.85;;;3.75;;
44068;SDS011;29738;51.234;5.484;2022-12-24T09:22:12;15.75;;;3.63;;
44068;SDS011;29738;51.234;5.484;2022-12-24T09:24:39;16.80;;;4.38;;
44068;SDS011;29738;51.234;5.484;2022-12-24T09:27:04;17.05;;;3.25;;
44068;SDS011;29738;51.234;5.484;2022-12-24T09:29:30;13.68;;;2.63;;
44068;SDS011;29738;51.234;5.484;2022-12-24T09:31:56;15.98;;;3.70;;
44068;SDS011;29738;51.234;5.484;2022-12-24T09:34:23;15.35;;;3.72;;
44068;SDS011;29738;51.234;5.484;2022-12-24T09:36:49;15.50;;;3.53;;
44068;SDS011;29738;51.234;5.484;2022-12-24T09:39:15;22.50;;;4.20;;
44068;SDS011;29738;51.234;5.484;2022-12-24T09:41:48;18.15;;;4.13;;
44068;SDS011;29738;51.234;5.484;2022-12-24T09:44:41;11.60;;;2.95;;
44068;SDS011;29738;51.234;5.484;2022-12-24T09:53:00;13.48;;;3.42;;
44068;SDS011;29738;51.234;5.484;2022-12-24T09:55:31;13.13;;;3.03;;
44068;SDS011;29738;51.234;5.484;2022-12-24T09:58:01;18.63;;;3.87;;
44068;SDS011;29738;51.234;5.484;2022-12-24T10:00:32;15.95;;;3.33;;
44068;SDS011;29738;51.234;5.484;2022-12-24T10:03:07;17.73;;;3.33;;
44068;SDS011;29738;51.234;5.484;2022-12-24T10:05:42;17.48;;;5.20;;
44068;SDS011;29738;51.234;5.484;2022-12-24T10:08:22;5.75;;;2.53;;
44068;SDS011;29738;51.234;5.484;2022-12-24T10:11:05;12.68;;;2.67;;
44068;SDS011;29738;51.234;5.484;2022-12-24T10:16:23;20.80;;;3.72;;
44068;SDS011;29738;51.234;5.484;2022-12-24T10:19:17;12.90;;;3.13;;
44068;SDS011;29738;51.234;5.484;2022-12-24T10:24:56;12.05;;;2.40;;
44068;SDS011;29738;51.234;5.484;2022-12-24T10:27:43;16.23;;;3.60;;
44068;SDS011;29738;51.234;5.484;2022-12-24T10:32:44;18.25;;;3.08;;
44068;SDS011;29738;51.234;5.484;2022-12-24T10:37:41;15.32;;;4.07;;
44068;SDS011;29738;51.234;5.484;2022-12-24T10:42:48;17.67;;;3.72;;
44068;SDS011;29738;51.234;5.484;2022-12-24T10:45:19;15.35;;;3.03;;
44068;SDS011;29738;51.234;5.484;2022-12-24T10:47:47;11.55;;;2.75;;
44068;SDS011;29738;51.234;5.484;2022-12-24T10:50:18;12.55;;;4.25;;
44068;SDS011;29738;51.234;5.484;2022-12-24T10:52:54;19.10;;;2.80;;
44068;SDS011;29738;51.234;5.484;2022-12-24T10:55:37;11.88;;;2.15;;
44068;SDS011;29738;51.234;5.484;2022-12-24T10:58:03;14.98;;;3.85;;
44068;SDS011;29738;51.234;5.484;2022-12-24T11:00:31;21.42;;;4.25;;
44068;SDS011;29738;51.234;5.484;2022-12-24T11:05:36;15.23;;;3.83;;
44068;SDS011;29738;51.234;5.484;2022-12-24T11:10:56;12.73;;;3.25;;
44068;SDS011;29738;51.234;5.484;2022-12-24T11:13:27;12.38;;;2.97;;
44068;SDS011;29738;51.234;5.484;2022-12-24T11:18:26;19.30;;;3.60;;
44068;SDS011;29738;51.234;5.484;2022-12-24T11:20:52;20.58;;;4.50;;
44068;SDS011;29738;51.234;5.484;2022-12-24T11:23:18;12.23;;;2.80;;
44068;SDS011;29738;51.234;5.484;2022-12-24T11:25:48;13.18;;;4.43;;
44068;SDS011;29738;51.234;5.484;2022-12-24T11:31:03;11.02;;;3.38;;
44068;SDS011;29738;51.234;5.484;2022-12-24T11:33:30;15.80;;;4.72;;
44068;SDS011;29738;51.234;5.484;2022-12-24T11:36:10;11.30;;;3.65;;
44068;SDS011;29738;51.234;5.484;2022-12-24T11:38:37;15.73;;;4.35;;
44068;SDS011;29738;51.234;5.484;2022-12-24T11:41:10;14.82;;;3.70;;
44068;SDS011;29738;51.234;5.484;2022-12-24T11:43:40;11.95;;;2.97;;
44068;SDS011;29738;51.234;5.484;2022-12-24T11:48:43;12.15;;;2.65;;
44068;SDS011;29738;51.234;5.484;2022-12-24T11:51:23;11.88;;;3.17;;
44068;SDS011;29738;51.234;5.484;2022-12-24T12:04:53;8.45;;;3.08;;
44068;SDS011;29738;51.234;5.484;2022-12-24T12:07:25;9.15;;;3.08;;
44068;SDS011;29738;51.234;5.484;2022-12-24T12:12:33;15.88;;;3.53;;
44068;SDS011;29738;51.234;5.484;2022-12-24T12:17:47;10.13;;;3.13;;
44068;SDS011;29738;51.234;5.484;2022-12-24T12:20:34;12.70;;;3.50;;
44068;SDS011;29738;51.234;5.484;2022-12-24T12:23:13;13.55;;;4.25;;
44068;SDS011;29738;51.234;5.484;2022-12-24T12:28:27;9.88;;;3.10;;
44068;SDS011;29738;51.234;5.484;2022-12-24T12:31:02;12.68;;;4.95;;
44068;SDS011;29738;51.234;5.484;2022-12-24T12:33:46;14.40;;;4.20;;
44068;SDS011;29738;51.234;5.484;2022-12-24T12:36:18;13.40;;;3.55;;
44068;SDS011;29738;51.234;5.484;2022-12-24T12:38:50;17.15;;;5.88;;
44068;SDS011;29738;51.234;5.484;2022-12-24T12:58:35;15.73;;;2.92;;
44068;SDS011;29738;51.234;5.484;2022-12-24T13:01:11;18.10;;;5.85;;
44068;SDS011;29738;51.234;5.484;2022-12-24T13:03:55;10.85;;;3.38;;
44068;SDS011;29738;51.234;5.484;2022-12-24T13:06:31;12.38;;;4.25;;
44068;SDS011;29738;51.234;5.484;2022-12-24T13:20:26;23.38;;;7.28;;
44068;SDS011;29738;51.234;5.484;2022-12-24T13:25:42;14.52;;;4.13;;
44068;SDS011;29738;51.234;5.484;2022-12-24T13:28:13;13.23;;;4.15;;
44068;SDS011;29738;51.234;5.484;2022-12-24T13:30:41;16.77;;;8.57;;
44068;SDS011;29738;51.234;5.484;2022-12-24T13:33:10;19.67;;;10.18;;
44068;SDS011;29738;51.234;5.484;2022-12-24T13:35:55;17.17;;;4.85;;
44068;SDS011;29738;51.234;5.484;2022-12-24T13:40:52;20.67;;;4.40;;
44068;SDS011;29738;51.234;5.484;2022-12-24T13:43:18;10.70;;;3.58;;
44068;SDS011;29738;51.234;5.484;2022-12-24T13:45:45;15.10;;;5.45;;
44068;SDS011;29738;51.234;5.484;2022-12-24T13:50:46;18.35;;;5.30;;
44068;SDS011;29738;51.234;5.484;2022-12-24T13:53:20;11.77;;;3.90;;
44068;SDS011;29738;51.234;5.484;2022-12-24T13:58:41;13.45;;;3.90;;
44068;SDS011;29738;51.234;5.484;2022-12-24T14:01:36;14.18;;;4.50;;
44068;SDS011;29738;51.234;5.484;2022-12-24T14:04:03;11.02;;;3.38;;
44068;SDS011;29738;51.234;5.484;2022-12-24T14:06:32;14.32;;;4.70;;
44068;SDS011;29738;51.234;5.484;2022-12-24T14:09:09;17.88;;;6.63;;
44068;SDS011;29738;51.234;5.484;2022-12-24T14:14:33;12.35;;;4.88;;
44068;SDS011;29738;51.234;5.484;2022-12-24T14:17:01;17.75;;;5.13;;
44068;SDS011;29738;51.234;5.484;2022-12-24T14:19:41;17.27;;;7.68;;
44068;SDS011;29738;51.234;5.484;2022-12-24T14:24:57;14.73;;;3.70;;
44068;SDS011;29738;51.234;5.484;2022-12-24T14:30:17;23.90;;;6.43;;
44068;SDS011;29738;51.234;5.484;2022-12-24T14:32:48;19.20;;;8.13;;
44068;SDS011;29738;51.234;5.484;2022-12-24T14:35:16;38.85;;;15.60;;
44068;SDS011;29738;51.234;5.484;2022-12-24T14:37:47;27.80;;;9.88;;
44068;SDS011;29738;51.234;5.484;2022-12-24T14:40:15;22.02;;;10.52;;
44068;SDS011;29738;51.234;5.484;2022-12-24T14:45:29;18.52;;;7.55;;
44068;SDS011;29738;51.234;5.484;2022-12-24T14:53:12;12.25;;;3.83;;
44068;SDS011;29738;51.234;5.484;2022-12-24T14:55:47;12.10;;;3.47;;
44068;SDS011;29738;51.234;5.484;2022-12-24T14:58:25;16.98;;;5.82;;
44068;SDS011;29738;51.234;5.484;2022-12-24T15:01:22;17.52;;;5.93;;
44068;SDS011;29738;51.234;5.484;2022-12-24T15:06:51;20.02;;;5.57;;
44068;SDS011;29738;51.234;5.484;2022-12-24T15:09:27;18.98;;;3.90;;
44068;SDS011;29738;51.234;5.484;2022-12-24T15:11:59;17.42;;;3.85;;
44068;SDS011;29738;51.234;5.484;2022-12-24T15:14:28;14.48;;;4.25;;
44068;SDS011;29738;51.234;5.484;2022-12-24T15:17:02;16.05;;;4.72;;
44068;SDS011;29738;51.234;5.484;2022-12-24T15:19:33;19.65;;;5.95;;
44068;SDS011;29738;51.234;5.484;2022-12-24T15:22:02;17.63;;;5.43;;
44068;SDS011;29738;51.234;5.484;2022-12-24T15:24:32;18.20;;;4.55;;
44068;SDS011;29738;51.234;5.484;2022-12-24T15:27:00;23.65;;;5.40;;
44068;SDS011;29738;51.234;5.484;2022-12-24T15:29:30;16.65;;;4.57;;
44068;SDS011;29738;51.234;5.484;2022-12-24T15:31:58;13.88;;;4.43;;
44068;SDS011;29738;51.234;5.484;2022-12-24T15:34:29;14.50;;;4.07;;
44068;SDS011;29738;51.234;5.484;2022-12-24T15:47:53;23.02;;;5.82;;
44068;SDS011;29738;51.234;5.484;2022-12-24T15:50:28;16.42;;;4.90;;
44068;SDS011;29738;51.234;5.484;2022-12-24T15:53:44;20.35;;;4.93;;
44068;SDS011;29738;51.234;5.484;2022-12-24T15:58:34;29.15;;;6.90;;
44068;SDS011;29738;51.234;5.484;2022-12-24T16:01:17;14.55;;;6.95;;
44068;SDS011;29738;51.234;5.484;2022-12-24T16:06:16;26.50;;;9.55;;
44068;SDS011;29738;51.234;5.484;2022-12-24T16:08:43;26.42;;;10.35;;
44068;SDS011;29738;51.234;5.484;2022-12-24T16:16:15;29.17;;;13.20;;
44068;SDS011;29738;51.234;5.484;2022-12-24T16:18:56;29.38;;;12.68;;
44068;SDS011;29738;51.234;5.484;2022-12-24T16:21:34;27.55;;;10.95;;
44068;SDS011;29738;51.234;5.484;2022-12-24T16:24:13;27.50;;;11.90;;
44068;SDS011;29738;51.234;5.484;2022-12-24T16:26:39;30.92;;;11.15;;
44068;SDS011;29738;51.234;5.484;2022-12-24T16:29:05;30.88;;;11.80;;
44068;SDS011;29738;51.234;5.484;2022-12-24T16:31:32;24.73;;;11.20;;
44068;SDS011;29738;51.234;5.484;2022-12-24T16:34:01;26.42;;;10.05;;
44068;SDS011;29738;51.234;5.484;2022-12-24T16:36:27;29.35;;;10.93;;
44068;SDS011;29738;51.234;5.484;2022-12-24T16:38:55;30.73;;;9.93;;
44068;SDS011;29738;51.234;5.484;2022-12-24T16:41:40;37.60;;;12.50;;
44068;SDS011;29738;51.234;5.484;2022-12-24T16:44:24;28.40;;;11.30;;
44068;SDS011;29738;51.234;5.484;2022-12-24T16:46:51;22.70;;;11.15;;
44068;SDS011;29738;51.234;5.484;2022-12-24T16:49:18;32.65;;;13.85;;
44068;SDS011;29738;51.234;5.484;2022-12-24T16:51:45;28.83;;;13.18;;
44068;SDS011;29738;51.234;5.484;2022-12-24T16:54:11;25.52;;;11.27;;
44068;SDS011;29738;51.234;5.484;2022-12-24T16:56:38;24.67;;;11.73;;
44068;SDS011;29738;51.234;5.484;2022-12-24T16:59:05;24.58;;;11.55;;
44068;SDS011;29738;51.234;5.484;2022-12-24T17:01:30;24.98;;;12.38;;
44068;SDS011;29738;51.234;5.484;2022-12-24T17:03:56;26.90;;;12.27;;
44068;SDS011;29738;51.234;5.484;2022-12-24T17:06:22;32.38;;;13.15;;
44068;SDS011;29738;51.234;5.484;2022-12-24T17:08:48;30.58;;;16.27;;
44068;SDS011;29738;51.234;5.484;2022-12-24T17:11:14;26.23;;;12.35;;
44068;SDS011;29738;51.234;5.484;2022-12-24T17:13:39;22.30;;;10.23;;
44068;SDS011;29738;51.234;5.484;2022-12-24T17:16:05;32.05;;;11.23;;